Time;durP1;ratioP1;P1;durP2;ratioP2;P2;SDS_P1;SDS_P2;PMS_P1;PMS_P2;Temp;Humidity;BMP_temperature;BMP_pressure;BME280_temperature;BME280_humidity;BME280_pressure;Samples;Min_cycle;Max_cycle;Signal;HPM_P1;HPM_P2
2022/04/17 00:02:11;;;;;;;10.90;10.60;;;5.10;99.90;;;;;;5062276;28;20231;-82
2022/04/17 00:04:40;;;;;;;10.93;10.63;;;5.00;99.90;;;;;;5062354;28;20230;-82
2022/04/17 00:07:08;;;;;;;11.00;10.70;;;5.10;99.90;;;;;;5062301;28;20261;-83
2022/04/17 00:09:36;;;;;;;10.97;10.67;;;5.10;99.90;;;;;;5062464;28;20280;-83
2022/04/17 00:12:07;;;;;;;11.00;10.70;;;5.10;99.90;;;;;;5062308;28;20227;-83
2022/04/17 00:14:37;;;;;;;11.47;11.07;;;5.10;99.90;;;;;;5062552;28;20251;-83
2022/04/17 00:17:07;;;;;;;11.00;10.70;;;5.00;99.90;;;;;;5062538;28;20249;-83
2022/04/17 00:19:35;;;;;;;10.90;10.60;;;5.00;99.90;;;;;;5063042;28;20230;-83
2022/04/17 00:22:04;;;;;;;11.00;10.70;;;5.00;99.90;;;;;;5062238;28;20277;-83
2022/04/17 00:24:33;;;;;;;10.80;10.50;;;5.00;99.90;;;;;;5061163;28;20246;-83
2022/04/17 00:27:03;;;;;;;10.73;10.43;;;5.00;99.90;;;;;;5060715;28;20231;-83
2022/04/17 00:29:32;;;;;;;10.83;10.53;;;5.00;99.90;;;;;;5063584;28;20261;-84
2022/04/17 00:32:01;;;;;;;10.73;10.43;;;5.00;99.90;;;;;;5064026;28;20239;-83
2022/04/17 00:34:44;;;;;;;10.57;10.27;;;5.00;99.90;;;;;;5062485;28;20289;-83
2022/04/17 00:37:12;;;;;;;10.83;10.53;;;5.00;99.90;;;;;;5062189;28;20237;-84
2022/04/17 00:39:40;;;;;;;10.70;10.40;;;5.00;99.90;;;;;;5062237;28;20332;-83
2022/04/17 00:42:09;;;;;;;10.60;10.30;;;5.00;99.90;;;;;;5061219;28;20233;-84
2022/04/17 00:44:38;;;;;;;10.80;10.50;;;5.00;99.90;;;;;;5061729;28;20317;-83
2022/04/17 00:47:08;;;;;;;10.57;10.27;;;5.10;99.90;;;;;;5061778;28;20312;-83
2022/04/17 00:49:39;;;;;;;10.37;10.07;;;5.10;99.90;;;;;;5062131;28;20235;-83
2022/04/17 00:52:08;;;;;;;10.53;10.23;;;5.20;99.90;;;;;;5061631;28;20234;-83
2022/04/17 00:54:46;;;;;;;10.37;10.07;;;5.20;99.90;;;;;;5061658;28;20305;-83
2022/04/17 00:57:16;;;;;;;10.70;10.40;;;5.10;99.90;;;;;;5061582;28;20219;-83
2022/04/17 00:59:46;;;;;;;10.60;10.30;;;5.10;99.90;;;;;;5061530;28;20245;-83
2022/04/17 01:02:16;;;;;;;10.40;10.10;;;5.00;99.90;;;;;;5062015;28;20230;-83
2022/04/17 01:04:52;;;;;;;10.63;10.33;;;5.00;99.90;;;;;;5062098;28;20219;-83
2022/04/17 01:07:24;;;;;;;10.57;10.27;;;4.90;99.90;;;;;;5061758;28;20242;-83
2022/04/17 01:09:52;;;;;;;10.40;10.10;;;4.90;99.90;;;;;;5061336;28;20269;-83
2022/04/17 01:12:20;;;;;;;10.60;10.30;;;4.80;99.90;;;;;;5061316;28;20297;-84
2022/04/17 01:14:49;;;;;;;10.50;10.20;;;4.80;99.90;;;;;;5061242;28;20261;-83
2022/04/17 01:17:18;;;;;;;10.50;10.20;;;4.80;99.90;;;;;;5069128;28;20227;-83
2022/04/17 01:19:57;;;;;;;10.60;10.30;;;4.80;99.90;;;;;;5079202;28;20223;-82
2022/04/17 01:22:28;;;;;;;10.50;10.20;;;4.70;99.90;;;;;;5065775;28;20227;-83
2022/04/17 01:27:42;;;;;;;10.37;10.07;;;4.60;99.90;;;;;;5061676;28;20227;-83
2022/04/17 01:30:11;;;;;;;10.30;10.00;;;4.60;99.90;;;;;;5062687;28;20280;-83
2022/04/17 01:32:40;;;;;;;10.23;9.93;;;4.60;99.90;;;;;;5061669;28;20244;-83
2022/04/17 01:35:10;;;;;;;10.27;9.97;;;4.50;99.90;;;;;;5061092;28;20289;-83
2022/04/17 01:37:49;;;;;;;10.27;9.97;;;4.50;99.90;;;;;;5060752;28;20257;-83
2022/04/17 01:40:18;;;;;;;10.57;10.27;;;4.40;99.90;;;;;;5061355;28;20258;-83
2022/04/17 01:42:47;;;;;;;10.50;10.20;;;4.10;99.90;;;;;;5061245;28;20261;-83
2022/04/17 01:45:16;;;;;;;10.40;10.10;;;3.80;99.90;;;;;;5060967;28;20253;-83
2022/04/17 01:47:49;;;;;;;10.50;10.20;;;3.80;99.90;;;;;;5061878;28;20223;-83
2022/04/17 01:50:17;;;;;;;10.40;10.10;;;3.80;99.90;;;;;;5062386;28;20241;-83
2022/04/17 01:52:47;;;;;;;10.30;10.00;;;3.90;99.90;;;;;;5062527;28;20238;-83
2022/04/17 01:55:16;;;;;;;10.30;10.00;;;3.90;99.90;;;;;;5065308;28;20269;-83
2022/04/17 01:57:46;;;;;;;10.37;10.07;;;3.90;99.90;;;;;;5064874;28;20223;-83
2022/04/17 02:00:16;;;;;;;10.30;10.00;;;3.90;99.90;;;;;;5065133;28;20249;-83
2022/04/17 02:02:44;;;;;;;10.63;10.33;;;3.90;99.90;;;;;;5064870;28;20226;-83
2022/04/17 02:05:14;;;;;;;10.20;9.90;;;3.90;99.90;;;;;;5064532;28;20285;-83
2022/04/17 02:07:45;;;;;;;10.70;10.40;;;3.80;99.90;;;;;;5064910;28;20222;-83
2022/04/17 02:10:24;;;;;;;10.37;10.07;;;3.70;99.90;;;;;;5065010;28;20250;-83
2022/04/17 02:12:52;;;;;;;10.40;10.10;;;3.70;99.90;;;;;;5066885;28;20239;-83
2022/04/17 02:15:21;;;;;;;10.27;9.97;;;3.60;99.90;;;;;;5063856;28;20285;-83
2022/04/17 02:17:50;;;;;;;10.60;10.30;;;3.60;99.90;;;;;;5063742;28;20273;-83
2022/04/17 02:20:20;;;;;;;10.50;10.20;;;3.60;99.90;;;;;;5064117;28;20289;-83
2022/04/17 02:22:50;;;;;;;10.30;10.00;;;3.50;99.90;;;;;;5064000;28;20235;-83
2022/04/17 02:25:21;;;;;;;10.40;10.10;;;3.60;99.90;;;;;;5064513;28;20239;-83
2022/04/17 02:27:49;;;;;;;10.33;10.03;;;3.60;99.90;;;;;;5066075;28;20227;-83
2022/04/17 02:30:19;;;;;;;10.40;10.10;;;3.60;99.90;;;;;;5065883;28;20292;-83
2022/04/17 02:32:47;;;;;;;10.30;10.00;;;3.50;99.90;;;;;;5065299;28;20294;-83
2022/04/17 02:35:17;;;;;;;10.50;10.20;;;3.50;99.90;;;;;;5065042;28;20323;-83
2022/04/17 02:37:46;;;;;;;10.40;10.10;;;3.50;99.90;;;;;;5064432;28;20270;-83
2022/04/17 02:40:16;;;;;;;10.30;10.00;;;3.50;99.90;;;;;;5064449;28;20296;-84
2022/04/17 02:42:48;;;;;;;10.10;9.80;;;3.40;99.90;;;;;;5064697;28;20235;-83
2022/04/17 02:45:17;;;;;;;10.00;9.70;;;3.40;99.90;;;;;;5064161;28;20281;-83
2022/04/17 02:47:45;;;;;;;10.20;9.90;;;3.40;99.90;;;;;;5064232;28;20234;-83
2022/04/17 02:50:17;;;;;;;10.03;9.73;;;3.30;99.90;;;;;;5063539;28;20231;-83
2022/04/17 02:52:52;;;;;;;10.50;10.20;;;3.20;99.90;;;;;;5063496;28;20238;-83
2022/04/17 02:55:20;;;;;;;10.40;10.10;;;3.20;99.90;;;;;;5063842;28;20238;-82
2022/04/17 02:58:00;;;;;;;10.30;10.00;;;3.10;99.90;;;;;;5063050;28;20285;-82
2022/04/17 03:00:30;;;;;;;10.37;10.07;;;3.10;99.90;;;;;;5063151;28;20235;-82
2022/04/17 03:05:44;;;;;;;10.37;10.07;;;3.00;99.90;;;;;;5064302;28;20223;-83
2022/04/17 03:08:14;;;;;;;10.27;9.97;;;3.00;99.90;;;;;;5063821;28;20235;-83
2022/04/17 03:10:44;;;;;;;10.50;10.20;;;3.00;99.90;;;;;;5063734;28;20238;-84
2022/04/17 03:13:23;;;;;;;10.50;10.20;;;2.90;99.90;;;;;;5072617;28;20230;-83
2022/04/17 03:15:51;;;;;;;10.50;10.20;;;2.90;99.90;;;;;;5077966;28;20249;-83
2022/04/17 03:18:20;;;;;;;10.70;10.40;;;2.90;99.90;;;;;;5073519;28;20330;-83
2022/04/17 03:20:50;;;;;;;10.67;10.37;;;2.80;99.90;;;;;;5065579;28;20260;-83
2022/04/17 03:23:19;;;;;;;10.60;10.30;;;2.80;99.90;;;;;;5063833;28;20227;-83
2022/04/17 03:25:49;;;;;;;10.67;10.37;;;2.70;99.90;;;;;;5062583;28;20231;-83
2022/04/17 03:28:28;;;;;;;10.63;10.33;;;2.60;99.90;;;;;;5062380;28;20241;-83
2022/04/17 03:30:57;;;;;;;10.60;10.30;;;2.60;99.90;;;;;;5063131;28;20226;-83
2022/04/17 03:33:26;;;;;;;10.57;10.27;;;2.50;99.90;;;;;;5062750;28;20230;-83
2022/04/17 03:35:55;;;;;;;10.77;10.47;;;2.50;99.90;;;;;;5063489;28;20231;-83
2022/04/17 03:38:25;;;;;;;10.50;10.20;;;2.40;99.90;;;;;;5063436;28;20641;-82
2022/04/17 03:40:54;;;;;;;10.67;10.37;;;2.40;99.90;;;;;;5066993;28;20318;-83
2022/04/17 03:43:32;;;;;;;10.50;10.20;;;2.40;99.90;;;;;;5081207;28;20238;-83
2022/04/17 03:46:02;;;;;;;11.00;10.70;;;2.40;99.90;;;;;;5066610;28;20253;-83
2022/04/17 03:48:31;;;;;;;10.73;10.43;;;2.40;99.90;;;;;;5063697;28;20238;-83
2022/04/17 03:51:01;;;;;;;10.80;10.50;;;2.30;99.90;;;;;;5063679;28;20247;-83
2022/04/17 03:53:30;;;;;;;10.83;10.53;;;2.30;99.90;;;;;;5062945;28;20227;-83
2022/04/17 03:56:03;;;;;;;10.90;10.60;;;2.30;99.90;;;;;;5063384;28;20226;-83
2022/04/17 03:58:33;;;;;;;11.00;10.70;;;2.20;99.90;;;;;;5063269;28;20227;-83
2022/04/17 04:01:01;;;;;;;11.37;11.00;;;2.00;99.90;;;;;;5062639;28;20265;-83
2022/04/17 04:03:30;;;;;;;11.27;10.90;;;1.90;99.90;;;;;;5062868;28;20235;-83
2022/04/17 04:06:00;;;;;;;10.90;10.60;;;1.80;99.90;;;;;;5062380;28;20242;-83
2022/04/17 04:08:29;;;;;;;11.17;10.87;;;1.70;99.90;;;;;;5062956;28;20211;-83
2022/04/17 04:10:58;;;;;;;10.83;10.53;;;1.70;99.90;;;;;;5062903;28;20277;-83
2022/04/17 04:13:28;;;;;;;11.00;10.70;;;1.60;99.90;;;;;;5063063;28;20226;-83
2022/04/17 04:16:07;;;;;;;11.07;10.77;;;1.70;99.90;;;;;;5061483;28;20235;-83
2022/04/17 04:18:35;;;;;;;11.10;10.80;;;1.60;99.90;;;;;;5062713;28;20261;-83
2022/04/17 04:21:05;;;;;;;11.17;10.87;;;1.60;99.90;;;;;;5065931;28;20273;-83
2022/04/17 04:23:35;;;;;;;11.30;11.00;;;1.50;99.90;;;;;;5065349;28;20234;-82
2022/04/17 04:26:04;;;;;;;11.03;10.73;;;1.50;99.90;;;;;;5064200;28;20222;-83
2022/04/17 04:28:36;;;;;;;11.33;11.00;;;1.50;99.90;;;;;;5111526;22;20221;-81
2022/04/17 04:31:07;;;;;;;11.00;10.70;;;1.40;99.90;;;;;;5107748;28;20261;-81
2022/04/17 04:33:34;;;;;;;11.10;10.80;;;1.40;99.90;;;;;;5100918;28;20260;-80
2022/04/17 04:36:04;;;;;;;11.17;10.87;;;1.40;99.90;;;;;;5099211;28;20276;-80
2022/04/17 04:38:33;;;;;;;11.27;10.97;;;1.40;99.90;;;;;;5094723;28;20202;-80
2022/04/17 04:41:01;;;;;;;11.40;11.00;;;1.40;99.90;;;;;;5100227;28;20223;-81
2022/04/17 04:43:29;;;;;;;11.40;11.00;;;1.30;99.90;;;;;;5093074;28;20257;-81
2022/04/17 04:51:32;;;;;;;10.90;10.60;;;1.30;99.90;;;;;;5065991;28;20273;-81
2022/04/17 04:53:59;;;;;;;11.07;10.77;;;1.40;99.90;;;;;;5065906;28;20230;-81
2022/04/17 04:56:27;;;;;;;11.27;10.97;;;1.40;99.90;;;;;;5062797;28;20297;-81
2022/04/17 04:58:55;;;;;;;10.97;10.67;;;1.50;99.90;;;;;;5063045;28;20235;-81
2022/04/17 05:01:23;;;;;;;10.90;10.60;;;1.60;99.90;;;;;;5062851;28;20257;-81
2022/04/17 05:03:52;;;;;;;10.80;10.50;;;1.60;99.90;;;;;;5062493;28;20239;-81
2022/04/17 05:06:19;;;;;;;10.93;10.63;;;1.60;99.90;;;;;;5062660;28;20253;-82
2022/04/17 05:08:47;;;;;;;10.60;10.30;;;1.70;99.90;;;;;;5069136;28;20291;-82
2022/04/17 05:11:15;;;;;;;10.80;10.50;;;1.70;99.90;;;;;;5087838;28;20296;-80
2022/04/17 05:13:43;;;;;;;10.70;10.40;;;1.70;99.90;;;;;;5087500;28;20233;-80
2022/04/17 05:16:12;;;;;;;10.80;10.50;;;1.80;99.90;;;;;;5083936;28;20230;-81
2022/04/17 05:18:40;;;;;;;10.53;10.23;;;2.00;99.90;;;;;;5083269;28;20234;-81
2022/04/17 05:21:10;;;;;;;10.70;10.40;;;2.10;99.90;;;;;;5082849;28;20701;-81
2022/04/17 05:23:38;;;;;;;10.40;10.10;;;2.20;99.90;;;;;;5080849;28;20229;-81
2022/04/17 05:26:06;;;;;;;10.80;10.50;;;2.20;99.90;;;;;;5080927;28;20237;-81
2022/04/17 05:28:34;;;;;;;10.73;10.43;;;2.30;99.90;;;;;;5078740;28;20233;-81
2022/04/17 05:31:02;;;;;;;10.70;10.40;;;2.30;99.90;;;;;;5080080;28;20254;-80
2022/04/17 05:33:30;;;;;;;10.60;10.30;;;2.50;99.90;;;;;;5081197;28;20238;-81
2022/04/17 05:35:57;;;;;;;10.80;10.50;;;2.60;99.90;;;;;;5081052;28;20246;-81
2022/04/17 05:38:27;;;;;;;10.30;10.00;;;2.70;99.90;;;;;;5080916;28;20234;-82
2022/04/17 05:40:56;;;;;;;10.10;9.80;;;2.80;99.90;;;;;;5080570;28;20317;-82
2022/04/17 05:43:24;;;;;;;10.17;9.87;;;2.90;99.90;;;;;;5083644;28;20287;-81
2022/04/17 05:45:51;;;;;;;10.20;9.90;;;3.10;99.90;;;;;;5087292;28;20236;-82
2022/04/17 05:48:20;;;;;;;10.45;10.15;;;3.20;99.90;;;;;;5089843;28;20409;-83
2022/04/17 05:50:47;;;;;;;10.20;9.90;;;3.30;99.90;;;;;;5090491;28;20287;-83
2022/04/17 05:53:17;;;;;;;10.30;10.00;;;3.50;99.90;;;;;;5085240;28;20237;-83
2022/04/17 05:55:47;;;;;;;10.03;9.73;;;3.70;99.90;;;;;;5081469;28;20258;-83
2022/04/17 05:58:14;;;;;;;10.10;9.80;;;3.80;99.90;;;;;;5082958;28;20238;-83
2022/04/17 06:00:44;;;;;;;10.10;9.80;;;3.90;99.90;;;;;;5083631;28;20226;-84
2022/04/17 06:03:12;;;;;;;10.13;9.83;;;4.00;99.90;;;;;;5082260;28;20234;-83
2022/04/17 06:05:40;;;;;;;10.40;10.10;;;4.10;99.90;;;;;;5081413;28;20230;-83
2022/04/17 06:08:09;;;;;;;10.30;10.00;;;4.10;99.90;;;;;;5081988;28;20223;-83
2022/04/17 06:10:36;;;;;;;10.57;10.27;;;4.20;99.90;;;;;;5081327;28;20234;-83
2022/04/17 06:13:06;;;;;;;10.20;9.90;;;4.20;99.90;;;;;;5081892;28;20238;-83
2022/04/17 06:15:33;;;;;;;10.53;10.23;;;4.40;99.90;;;;;;5081042;28;20226;-83
2022/04/17 06:18:01;;;;;;;10.50;10.20;;;4.50;99.90;;;;;;5080836;28;20230;-84
2022/04/17 06:20:30;;;;;;;10.40;10.10;;;4.70;99.90;;;;;;5081813;28;20226;-85
2022/04/17 06:22:58;;;;;;;10.47;10.17;;;4.70;99.90;;;;;;5080495;28;20233;-84
2022/04/17 06:25:28;;;;;;;10.50;10.20;;;4.80;99.90;;;;;;5081279;28;20287;-84
2022/04/17 06:27:57;;;;;;;10.23;9.93;;;4.90;99.90;;;;;;5080617;28;20249;-84
2022/04/17 06:30:29;;;;;;;10.87;10.57;;;5.00;99.90;;;;;;5081605;28;20265;-85
2022/04/17 06:32:59;;;;;;;10.80;10.50;;;5.10;99.90;;;;;;5084790;28;20230;-85
2022/04/17 06:35:27;;;;;;;10.90;10.60;;;5.30;99.90;;;;;;5083373;28;20230;-83
2022/04/17 06:37:56;;;;;;;10.67;10.37;;;5.50;99.90;;;;;;5082670;28;20226;-84
2022/04/17 06:40:26;;;;;;;10.80;10.50;;;5.70;99.90;;;;;;5085019;28;20233;-84
2022/04/17 06:42:56;;;;;;;10.70;10.40;;;5.80;99.90;;;;;;5085651;28;20233;-83
2022/04/17 06:45:27;;;;;;;10.93;10.63;;;5.80;99.90;;;;;;5090433;28;20226;-84
2022/04/17 06:47:55;;;;;;;10.77;10.47;;;6.00;99.90;;;;;;5092743;28;20284;-83
2022/04/17 06:50:25;;;;;;;10.67;10.37;;;6.10;99.90;;;;;;5086477;28;20429;-84
2022/04/17 06:52:54;;;;;;;11.00;10.70;;;6.30;99.90;;;;;;5084258;28;20231;-84
2022/04/17 06:55:22;;;;;;;10.90;10.60;;;6.40;99.90;;;;;;5083222;28;20257;-83
2022/04/17 06:57:52;;;;;;;10.80;10.50;;;6.50;99.90;;;;;;5084613;28;20233;-84
2022/04/17 07:00:22;;;;;;;10.70;10.40;;;6.60;99.90;;;;;;5083337;28;20230;-84
2022/04/17 07:02:53;;;;;;;10.40;10.10;;;6.70;99.90;;;;;;5083250;28;20241;-84
2022/04/17 07:05:21;;;;;;;10.70;10.40;;;6.70;99.90;;;;;;5083794;28;20324;-83
2022/04/17 07:07:59;;;;;;;10.90;10.60;;;6.90;99.90;;;;;;5083329;28;20296;-83
2022/04/17 07:10:28;;;;;;;11.03;10.73;;;7.10;99.90;;;;;;5083002;28;20238;-84
2022/04/17 07:12:57;;;;;;;10.80;10.50;;;7.20;99.90;;;;;;5082855;28;20249;-83
2022/04/17 07:15:28;;;;;;;10.87;10.57;;;7.40;99.90;;;;;;5082344;28;20236;-83
2022/04/17 07:17:58;;;;;;;10.80;10.50;;;7.50;99.90;;;;;;5082530;28;20325;-83
2022/04/17 07:20:26;;;;;;;10.60;10.30;;;7.70;99.90;;;;;;5083167;28;20230;-83
2022/04/17 07:22:54;;;;;;;10.70;10.40;;;7.90;99.90;;;;;;5082160;28;20241;-83
2022/04/17 07:25:24;;;;;;;10.90;10.60;;;7.90;99.90;;;;;;5082995;28;20226;-84
2022/04/17 07:27:56;;;;;;;10.93;10.63;;;8.10;99.90;;;;;;5081416;28;20232;-82
2022/04/17 07:30:26;;;;;;;10.50;10.20;;;8.30;99.90;;;;;;5087603;28;20226;-84
2022/04/17 07:32:59;;;;;;;10.57;10.27;;;8.40;99.90;;;;;;5099861;28;20223;-84
2022/04/17 07:35:30;;;;;;;10.87;10.57;;;8.60;99.90;;;;;;5100895;28;20230;-84
2022/04/17 07:38:01;;;;;;;10.60;10.30;;;8.80;99.90;;;;;;5092468;28;20717;-83
2022/04/17 07:40:31;;;;;;;10.63;10.33;;;9.00;99.90;;;;;;5084355;28;20234;-83
2022/04/17 07:43:01;;;;;;;10.50;10.20;;;9.00;99.90;;;;;;5083669;28;20241;-83
2022/04/17 07:45:31;;;;;;;10.70;10.40;;;9.00;99.90;;;;;;5084213;28;20241;-83
2022/04/17 07:48:00;;;;;;;10.20;9.90;;;9.00;99.90;;;;;;5083297;28;20232;-83
2022/04/17 07:50:31;;;;;;;10.23;9.93;;;9.10;99.90;;;;;;5083309;28;20226;-83
2022/04/17 07:53:00;;;;;;;10.20;9.90;;;9.30;99.90;;;;;;5083289;28;20266;-83
2022/04/17 07:55:29;;;;;;;10.27;9.97;;;9.30;99.90;;;;;;5083259;28;20244;-83
2022/04/17 07:58:11;;;;;;;10.20;9.90;;;9.20;99.90;;;;;;5084096;28;20234;-84
2022/04/17 08:00:47;;;;;;;10.10;9.80;;;9.30;99.90;;;;;;5084651;28;20230;-84
2022/04/17 08:03:45;;;;;;;10.37;10.07;;;9.40;99.90;;;;;;5084304;28;20321;-83
2022/04/17 08:06:22;;;;;;;10.20;9.90;;;9.60;99.90;;;;;;5083801;28;20230;-84
2022/04/17 08:08:54;;;;;;;10.23;9.93;;;9.90;99.90;;;;;;5085025;28;20240;-84
2022/04/17 08:11:25;;;;;;;10.50;10.20;;;9.90;99.90;;;;;;5092618;28;20230;-85
2022/04/17 08:13:56;;;;;;;10.30;10.00;;;10.00;99.90;;;;;;5090519;28;20233;-86
2022/04/17 08:16:25;;;;;;;10.17;9.87;;;10.10;99.90;;;;;;5086603;28;20248;-84
2022/04/17 08:18:54;;;;;;;10.00;9.70;;;10.30;99.90;;;;;;5085455;28;20292;-83
2022/04/17 08:21:26;;;;;;;10.33;10.03;;;10.50;99.90;;;;;;5085929;28;20222;-84
2022/04/17 08:23:54;;;;;;;10.50;10.20;;;10.60;99.90;;;;;;5084319;28;20215;-84
2022/04/17 08:26:26;;;;;;;9.90;9.60;;;10.80;99.90;;;;;;5083308;28;20238;-86
2022/04/17 08:28:55;;;;;;;10.17;9.87;;;10.80;99.90;;;;;;5081881;28;20246;-85
2022/04/17 08:31:22;;;;;;;9.80;9.50;;;11.00;99.90;;;;;;5082650;28;20225;-84
2022/04/17 08:33:52;;;;;;;10.40;10.10;;;11.10;99.90;;;;;;5083657;28;20328;-83
2022/04/17 08:36:22;;;;;;;10.30;10.00;;;11.20;99.90;;;;;;5081881;28;20302;-83
2022/04/17 08:38:50;;;;;;;9.77;9.47;;;11.20;99.90;;;;;;5083520;28;20234;-83
2022/04/17 08:41:21;;;;;;;10.00;9.70;;;11.40;99.90;;;;;;5080876;28;20241;-81
2022/04/17 08:43:49;;;;;;;9.77;9.47;;;11.50;99.90;;;;;;5081327;28;20233;-82
2022/04/17 08:46:17;;;;;;;10.10;9.80;;;11.90;99.90;;;;;;5082556;28;21072;-82
2022/04/17 08:48:45;;;;;;;9.80;9.50;;;11.80;99.90;;;;;;5086191;28;20229;-80
2022/04/17 08:51:13;;;;;;;10.07;9.77;;;11.80;99.90;;;;;;5086664;28;20226;-82
2022/04/17 08:53:43;;;;;;;10.10;9.80;;;11.90;99.90;;;;;;5082601;28;20241;-82
2022/04/17 08:56:11;;;;;;;10.10;9.80;;;11.90;99.90;;;;;;5081368;28;20234;-82
2022/04/17 08:58:42;;;;;;;10.37;10.07;;;12.20;99.90;;;;;;5083200;28;20229;-83
2022/04/17 09:01:15;;;;;;;10.50;10.20;;;12.50;99.90;;;;;;5083502;28;20321;-84
2022/04/17 09:03:43;;;;;;;10.20;9.90;;;12.70;99.90;;;;;;5083352;28;20324;-81
2022/04/17 09:06:12;;;;;;;9.83;9.53;;;12.80;99.90;;;;;;5081989;28;20226;-82
2022/04/17 09:09:03;;;;;;;10.30;10.00;;;13.10;99.90;;;;;;5081224;28;20238;-82
2022/04/17 09:11:32;;;;;;;10.07;9.77;;;13.30;99.90;;;;;;5080787;28;20230;-81
2022/04/17 09:14:03;;;;;;;9.87;9.57;;;13.50;99.90;;;;;;5081238;28;20222;-82
2022/04/17 09:16:35;;;;;;;10.00;9.70;;;13.70;99.90;;;;;;5081774;28;20242;-82
2022/04/17 09:19:14;;;;;;;10.30;10.00;;;13.70;99.90;;;;;;5080856;28;20238;-81
2022/04/17 09:21:43;;;;;;;10.33;10.03;;;13.60;99.90;;;;;;5081148;28;20234;-81
2022/04/17 09:24:20;;;;;;;10.23;9.93;;;13.60;99.90;;;;;;5081198;28;20230;-82
2022/04/17 09:26:53;;;;;;;10.20;9.90;;;13.40;99.90;;;;;;5082523;28;20245;-83
2022/04/17 09:29:24;;;;;;;10.20;9.90;;;13.60;99.90;;;;;;5081410;28;20377;-83
2022/04/17 09:32:00;;;;;;;10.50;10.20;;;13.80;99.90;;;;;;5081865;28;20240;-83
2022/04/17 09:34:33;;;;;;;10.40;10.10;;;14.20;99.90;;;;;;5082148;28;20237;-82
2022/04/17 09:37:01;;;;;;;10.20;9.90;;;14.20;99.90;;;;;;5082591;28;20237;-82
2022/04/17 09:39:34;;;;;;;10.17;9.87;;;14.10;99.90;;;;;;5081379;28;20234;-82
2022/04/17 09:42:05;;;;;;;10.00;9.70;;;14.00;99.90;;;;;;5081835;28;20221;-83
2022/04/17 09:44:47;;;;;;;10.20;9.90;;;13.90;99.90;;;;;;5084628;28;20234;-83
2022/04/17 09:47:20;;;;;;;9.90;9.60;;;14.00;99.90;;;;;;5095430;28;20226;-83
2022/04/17 09:49:54;;;;;;;9.73;9.43;;;14.10;99.90;;;;;;5097836;28;20202;-84
2022/04/17 09:52:23;;;;;;;10.00;9.70;;;14.20;99.90;;;;;;5099260;28;20325;-83
2022/04/17 09:54:53;;;;;;;10.00;9.70;;;14.10;99.90;;;;;;5096715;28;20260;-83
2022/04/17 09:57:45;;;;;;;9.97;9.67;;;14.10;99.90;;;;;;5090994;28;20256;-83
2022/04/17 10:00:15;;;;;;;9.90;9.60;;;14.20;99.90;;;;;;5095533;28;20301;-84
2022/04/17 10:02:46;;;;;;;10.00;9.70;;;14.40;99.90;;;;;;5098312;28;20290;-83
2022/04/17 10:05:16;;;;;;;10.10;9.80;;;14.60;99.90;;;;;;5096988;28;20272;-84
2022/04/17 10:07:47;;;;;;;10.40;10.10;;;14.90;99.90;;;;;;5099060;28;20232;-82
2022/04/17 10:10:18;;;;;;;9.98;9.68;;;14.80;99.90;;;;;;5099025;28;20214;-83
2022/04/17 10:12:48;;;;;;;9.90;9.60;;;14.40;99.90;;;;;;5098911;28;20233;-83
2022/04/17 10:15:17;;;;;;;10.00;9.70;;;14.40;99.90;;;;;;5101021;28;20237;-83
2022/04/17 10:17:47;;;;;;;10.27;9.98;;;14.70;99.90;;;;;;5100187;28;20232;-83
2022/04/17 10:20:17;;;;;;;9.93;9.63;;;15.00;99.90;;;;;;5101039;28;20215;-82
2022/04/17 10:22:57;;;;;;;10.00;9.70;;;15.10;99.90;;;;;;5096617;28;20273;-83
2022/04/17 10:25:26;;;;;;;10.00;9.70;;;15.20;99.90;;;;;;5100874;28;20225;-83
2022/04/17 10:27:59;;;;;;;10.38;10.07;;;15.50;99.90;;;;;;5131207;22;20233;-81
2022/04/17 10:30:42;;;;;;;10.50;10.20;;;15.10;99.90;;;;;;5044819;28;20290;-82
2022/04/17 10:34:06;;;;;;;10.10;9.80;;;15.10;99.90;;;;;;5045129;28;20235;-82
2022/04/17 10:43:07;;;;;;;10.20;9.90;;;16.20;99.90;;;;;;5045177;28;20231;-83
2022/04/17 11:04:23;;;;;;;10.00;9.70;;;16.80;99.90;;;;;;4914676;28;20335;-85
2022/04/17 11:07:29;;;;;;;9.95;9.65;;;16.70;99.90;;;;;;4965458;28;20234;-85
2022/04/17 11:11:00;;;;;;;9.70;9.40;;;16.50;99.90;;;;;;5028476;28;20226;-84
2022/04/17 11:13:28;;;;;;;10.10;9.80;;;16.30;99.90;;;;;;5043357;28;20302;-84
2022/04/17 11:15:58;;;;;;;10.00;9.70;;;16.20;99.90;;;;;;5057731;28;20239;-85
2022/04/17 11:18:29;;;;;;;9.85;9.55;;;16.80;99.90;;;;;;5050289;28;20223;-83
2022/04/17 11:25:11;;;;;;;10.00;9.70;;;16.70;99.90;;;;;;5045881;28;20231;-85
2022/04/17 11:27:48;;;;;;;9.93;9.63;;;16.70;99.90;;;;;;5045326;28;20239;-83
2022/04/17 11:30:36;;;;;;;9.73;9.43;;;17.20;99.90;;;;;;5044726;28;21043;-84
2022/04/17 11:33:06;;;;;;;10.20;9.90;;;17.00;99.90;;;;;;5044018;28;20211;-83
2022/04/17 11:35:35;;;;;;;10.10;9.80;;;17.30;99.90;;;;;;5045963;28;20294;-86
2022/04/17 11:38:17;;;;;;;10.10;9.80;;;17.40;99.90;;;;;;5045449;28;20295;-85
2022/04/17 11:41:27;;;;;;;9.85;9.55;;;17.10;99.90;;;;;;5048308;28;20247;-84
2022/04/17 11:44:09;;;;;;;10.00;9.70;;;17.10;99.90;;;;;;5045273;28;20330;-84
2022/04/17 11:46:42;;;;;;;10.05;9.75;;;17.50;99.90;;;;;;5043899;28;20707;-84
2022/04/17 11:49:12;;;;;;;9.93;9.63;;;18.10;99.90;;;;;;5044513;28;20235;-84
2022/04/17 11:51:52;;;;;;;9.80;9.50;;;18.40;99.90;;;;;;5044434;28;20223;-83
2022/04/17 12:00:42;;;;;;;9.82;9.52;;;17.50;99.90;;;;;;5044572;28;20231;-85
2022/04/17 12:09:47;;;;;;;10.15;9.85;;;18.00;99.90;;;;;;5040729;28;20223;-85
2022/04/17 12:12:33;;;;;;;10.10;9.80;;;18.30;99.90;;;;;;5044139;28;21090;-86
2022/04/17 12:15:11;;;;;;;9.93;9.63;;;18.40;99.90;;;;;;5045078;28;20263;-85
2022/04/17 12:17:59;;;;;;;9.95;9.65;;;17.60;99.80;;;;;;5045328;28;20250;-85
2022/04/17 12:20:28;;;;;;;10.00;9.70;;;17.80;99.90;;;;;;5048105;28;20235;-85
2022/04/17 12:22:57;;;;;;;10.00;9.70;;;18.20;99.90;;;;;;5044799;28;20304;-85
2022/04/17 12:25:38;;;;;;;10.20;9.90;;;18.40;99.80;;;;;;5044456;28;20287;-85
2022/04/17 12:30:52;;;;;;;10.00;9.70;;;18.40;99.70;;;;;;5042448;28;20251;-85
2022/04/17 12:36:17;;;;;;;9.73;9.43;;;18.10;97.80;;;;;;5043728;28;20235;-84
2022/04/17 12:39:03;;;;;;;9.82;9.52;;;18.40;98.80;;;;;;5041744;28;20231;-84
2022/04/17 12:41:42;;;;;;;10.05;9.75;;;18.50;99.00;;;;;;5043351;28;20228;-84
2022/04/17 12:44:37;;;;;;;10.05;9.75;;;18.50;97.40;;;;;;5043409;28;20239;-84
2022/04/17 12:47:20;;;;;;;10.25;9.95;;;18.50;97.40;;;;;;5042598;28;20228;-85
2022/04/17 12:49:58;;;;;;;10.10;9.80;;;18.40;97.50;;;;;;5043005;28;20218;-84
2022/04/17 12:52:42;;;;;;;9.98;9.68;;;18.60;97.10;;;;;;5044037;28;20227;-85
2022/04/17 12:55:18;;;;;;;10.02;9.73;;;18.70;94.80;;;;;;5045165;28;20235;-85
2022/04/17 12:57:58;;;;;;;10.15;9.85;;;18.50;96.50;;;;;;5046236;28;20374;-84
2022/04/17 13:00:49;;;;;;;10.10;9.80;;;18.20;95.80;;;;;;5044992;28;20311;-85
2022/04/17 13:03:23;;;;;;;10.50;10.20;;;17.50;95.50;;;;;;5043599;28;20231;-85
2022/04/17 13:06:11;;;;;;;10.38;10.07;;;17.00;96.70;;;;;;5042926;28;20262;-84
2022/04/17 13:08:49;;;;;;;10.60;10.30;;;17.20;97.70;;;;;;5042153;28;20232;-84
2022/04/17 13:11:34;;;;;;;10.55;10.25;;;17.60;96.80;;;;;;5042257;28;20235;-85
2022/04/17 13:14:23;;;;;;;10.52;10.23;;;17.80;95.30;;;;;;5042556;28;20231;-85
2022/04/17 13:17:01;;;;;;;10.63;10.32;;;18.10;95.30;;;;;;5053484;28;20233;-84
2022/04/17 13:19:31;;;;;;;10.75;10.45;;;18.20;96.00;;;;;;5055653;28;20228;-84
2022/04/17 13:22:00;;;;;;;10.57;10.27;;;18.40;96.90;;;;;;5043621;28;20227;-84
2022/04/17 13:27:17;;;;;;;10.27;9.98;;;19.80;96.30;;;;;;5043516;28;20227;-85
2022/04/17 13:29:55;;;;;;;10.13;9.82;;;20.40;95.90;;;;;;5041778;28;20321;-84
2022/04/17 13:32:23;;;;;;;10.15;9.85;;;20.80;93.70;;;;;;5041386;28;20233;-84
2022/04/17 13:34:52;;;;;;;10.20;9.90;;;21.00;94.60;;;;;;5041561;28;20255;-84
2022/04/17 13:40:10;;;;;;;10.15;9.85;;;21.30;92.70;;;;;;5042081;28;20247;-84
2022/04/17 13:42:40;;;;;;;10.00;9.70;;;21.00;92.80;;;;;;5041807;28;20219;-84
2022/04/17 13:45:18;;;;;;;10.10;9.80;;;20.60;91.90;;;;;;5042161;28;20245;-84
2022/04/17 13:47:48;;;;;;;10.32;10.02;;;20.00;92.10;;;;;;5042046;28;20230;-84
2022/04/17 13:50:16;;;;;;;10.60;10.30;;;19.80;93.00;;;;;;5044484;28;20255;-84
2022/04/17 13:52:49;;;;;;;10.45;10.15;;;19.60;92.90;;;;;;5045580;28;20232;-84
2022/04/17 13:55:24;;;;;;;10.23;9.93;;;19.60;93.10;;;;;;5045820;28;20235;-85
2022/04/17 13:57:55;;;;;;;10.30;10.00;;;19.90;93.70;;;;;;5045629;28;20231;-84
2022/04/17 14:00:28;;;;;;;9.93;9.63;;;19.60;93.30;;;;;;5047233;28;20228;-83
2022/04/17 14:05:50;;;;;;;10.30;10.00;;;19.90;94.40;;;;;;5046715;28;20223;-84
2022/04/17 14:11:13;;;;;;;9.98;9.68;;;20.40;93.10;;;;;;5046915;28;20226;-84
2022/04/17 14:16:39;;;;;;;10.20;9.90;;;20.90;91.80;;;;;;5045700;28;20233;-83